Ana Sayfa
METAR-TAF:

METAR-TAF

Havaalanları :

Uşak Havalimanı

Uşak, Türkiye

Enlem: 38-40N, Boylam: 029-25E, yükseklik: 919 m

Güncel hava durumu gözlemi

Rapor saat 02:50 UTC de 56 dakika önce yapıldı.
Rüzgar doğudan 10 kt
Sıcaklık 10°C
Nem 82%
Basınç 1020 hPa
Görüş mesafesi 10 km veya daha fazla
1500 m altında bulut yok ve kümülonimbus yok

METAR: LTBO 220250Z 08010KT CAVOK 10/07 Q1020

Saat: 06:46 (03:46 UTC)

Tahmin

Rapor saat 01:40 UTC de 2 saat ve 6 dakika önce yapıldı.
Ayın 22'si saat 03 UTC'den ayın 22'si saat 12 UTC'ye kadar geçerli Tahmin
Rüzgar değişken yönden 2 kt
Görüş mesafesi: 3000 m
1000 ft yükseklikte az bulutlu
4000 ft yükseklikte parçalı bulutlu
Pus
Dönüşüyor
ayın 22'si saat 06 UTC'den ayın 22'si saat 08 UTC'ye kadar
Rüzgar doğu/kuzeydoğudan 13 kt
Görüş mesafesi 10 km veya daha fazla

TAF: LTBO 220140Z 2203/2212 VRB02KT 3000 BR FEW010 SCT040 BECMG 2206/2208 07013KT 9999 NSW

4.000'den fazla havaalanı için hava durumu gözlemleri ve tahminleri (METAR ve TAF raporları).

Kullanılabilir istasyonlar harita üzerinde sarı ve kırmızı noktalarla gösterilir.

İstasyonun adını görmek için fareyi noktanın üzerinde gezdirin.

Sonrasında hava gözlem ve tahminlerini görmek için tıklayın.

Haritayı değiştirmek için: yaklaştırmak için siyah artı işaretli yeşil düğmeye ve uzaklaştırmak için de eksi işaretli düğmeye hızla tıklayın; bitişik haritalar için yeşil okları kullanın.


METAR-TAF: